createdAt,value
2017-12-08T00:00:20.501Z,11.43
2017-12-08T00:02:48.723Z,10.30
2017-12-08T00:05:17.014Z,9.03
2017-12-08T00:07:45.296Z,8.77
2017-12-08T00:10:13.599Z,9.60
2017-12-08T00:12:41.870Z,10.57
2017-12-08T00:15:10.101Z,9.87
2017-12-08T00:17:38.488Z,9.70
2017-12-08T00:20:06.734Z,11.20
2017-12-08T00:22:35.765Z,10.27
2017-12-08T00:25:04.110Z,9.73
2017-12-08T00:27:32.339Z,7.97
2017-12-08T00:30:00.606Z,9.63
2017-12-08T00:32:29.056Z,11.07
2017-12-08T00:34:57.303Z,11.80
2017-12-08T00:37:25.524Z,7.90
2017-12-08T00:39:53.913Z,8.47
2017-12-08T00:42:22.162Z,8.03
2017-12-08T00:44:50.460Z,7.97
2017-12-08T00:47:18.840Z,9.63
2017-12-08T00:49:47.083Z,8.83
2017-12-08T00:52:15.362Z,9.63
2017-12-08T00:54:43.682Z,9.33
2017-12-08T00:57:11.989Z,8.60
2017-12-08T00:59:41.077Z,11.93
2017-12-08T01:02:09.311Z,7.87
2017-12-08T01:04:38.329Z,7.90
2017-12-08T01:07:06.624Z,8.30
2017-12-08T01:09:34.845Z,10.13
2017-12-08T01:12:03.078Z,7.57
2017-12-08T01:14:31.404Z,10.10
2017-12-08T01:16:59.656Z,12.07
2017-12-08T01:19:28.636Z,8.67
2017-12-08T01:21:56.937Z,9.00
2017-12-08T01:24:25.178Z,9.90
2017-12-08T01:26:53.422Z,9.03
2017-12-08T01:29:21.828Z,8.90
2017-12-08T01:31:50.053Z,9.27
2017-12-08T01:34:18.296Z,7.97
2017-12-08T01:36:47.360Z,10.47
2017-12-08T01:39:15.598Z,8.90
2017-12-08T01:41:43.851Z,9.23
2017-12-08T01:44:12.127Z,9.37
2017-12-08T01:46:40.405Z,8.27
2017-12-08T01:49:09.522Z,7.63
2017-12-08T01:51:37.784Z,7.73
2017-12-08T01:54:06.036Z,9.10
2017-12-08T01:56:35.202Z,9.00
2017-12-08T01:59:03.429Z,10.43
2017-12-08T02:01:31.658Z,8.90
2017-12-08T02:04:00.046Z,8.70
2017-12-08T02:06:28.266Z,9.20
2017-12-08T02:08:56.582Z,7.60
2017-12-08T02:11:24.967Z,8.80
2017-12-08T02:13:53.201Z,8.87
2017-12-08T02:16:21.469Z,10.00
2017-12-08T02:18:49.740Z,10.83
2017-12-08T02:21:18.061Z,9.53
2017-12-08T02:23:46.300Z,8.00
2017-12-08T02:26:14.534Z,11.10
2017-12-08T02:28:43.644Z,7.57
2017-12-08T02:31:12.631Z,8.10
2017-12-08T02:33:41.647Z,7.10
2017-12-08T02:36:09.957Z,6.67
2017-12-08T02:38:38.236Z,8.53
2017-12-08T02:41:06.451Z,8.43
2017-12-08T02:43:35.492Z,8.70
2017-12-08T02:46:03.700Z,6.97
2017-12-08T02:48:31.932Z,7.33
2017-12-08T02:51:00.268Z,6.40
2017-12-08T02:53:28.580Z,9.90
2017-12-08T02:55:56.832Z,7.40
2017-12-08T02:58:25.160Z,7.07
2017-12-08T03:00:53.393Z,7.30
2017-12-08T03:03:21.610Z,7.00
2017-12-08T03:05:49.917Z,8.13
2017-12-08T03:08:18.942Z,6.10
2017-12-08T03:10:47.173Z,7.23
2017-12-08T03:13:15.579Z,7.07
2017-12-08T03:15:43.868Z,6.80
2017-12-08T03:18:12.103Z,6.90
2017-12-08T03:20:40.436Z,7.37
2017-12-08T03:23:08.682Z,8.00
2017-12-08T03:25:36.900Z,8.17
2017-12-08T03:28:05.178Z,6.37
2017-12-08T03:30:33.499Z,8.20
2017-12-08T03:33:02.499Z,7.17
2017-12-08T03:35:31.634Z,7.93
2017-12-08T03:37:59.891Z,8.07
2017-12-08T03:40:28.133Z,6.80
2017-12-08T03:42:56.447Z,9.03
2017-12-08T03:45:24.732Z,8.33
2017-12-08T03:47:53.045Z,5.57
2017-12-08T03:50:21.383Z,6.40
2017-12-08T03:52:49.606Z,8.83
2017-12-08T03:55:17.926Z,5.93
2017-12-08T03:57:46.222Z,7.20
2017-12-08T04:00:14.458Z,6.40
2017-12-08T04:02:42.729Z,5.27
2017-12-08T04:05:11.756Z,8.43
2017-12-08T04:07:40.161Z,7.10
2017-12-08T04:10:08.395Z,8.23
2017-12-08T04:12:36.633Z,8.30
2017-12-08T04:15:04.979Z,6.90
2017-12-08T04:17:33.213Z,10.40
2017-12-08T04:20:01.430Z,8.37
2017-12-08T04:22:29.746Z,7.80
2017-12-08T04:24:58.714Z,7.57
2017-12-08T04:27:27.043Z,8.50
2017-12-08T04:29:55.353Z,7.03
2017-12-08T04:32:23.638Z,8.83
2017-12-08T04:34:51.864Z,7.67
2017-12-08T04:37:20.169Z,7.63
2017-12-08T04:39:48.430Z,8.43
2017-12-08T04:42:16.651Z,6.97
2017-12-08T04:44:44.932Z,6.43
2017-12-08T04:47:13.951Z,9.10
2017-12-08T04:49:42.203Z,8.90
2017-12-08T04:52:10.514Z,9.20
2017-12-08T04:54:38.838Z,8.00
2017-12-08T04:57:07.126Z,8.70
2017-12-08T04:59:36.208Z,10.43
2017-12-08T05:02:04.441Z,9.10
2017-12-08T05:04:32.673Z,7.77
2017-12-08T05:07:01.777Z,8.30
2017-12-08T05:09:30.809Z,8.57
2017-12-08T05:11:59.045Z,8.97
2017-12-08T05:14:28.209Z,9.03
2017-12-08T05:16:56.496Z,31.03
2017-12-08T05:19:25.514Z,8.43
2017-12-08T05:21:53.806Z,10.33
2017-12-08T05:24:22.130Z,13.73
2017-12-08T05:26:50.492Z,9.43
2017-12-08T05:29:18.938Z,9.80
2017-12-08T05:31:47.184Z,10.30
2017-12-08T05:34:16.235Z,9.10
2017-12-08T05:36:44.534Z,9.13
2017-12-08T05:39:12.784Z,8.40
2017-12-08T05:41:41.018Z,8.70
2017-12-08T05:44:10.127Z,10.10
2017-12-08T05:46:38.400Z,8.27
2017-12-08T05:49:07.395Z,11.00
2017-12-08T05:51:35.695Z,11.60
2017-12-08T05:54:03.934Z,15.20
2017-12-08T05:56:33.032Z,13.13
2017-12-08T05:59:02.130Z,12.17
2017-12-08T06:01:31.127Z,12.13
2017-12-08T06:04:00.173Z,12.30
2017-12-08T06:06:28.439Z,10.40
2017-12-08T06:08:56.678Z,9.97
2017-12-08T06:11:25.014Z,9.63
2017-12-08T06:13:53.302Z,10.20
2017-12-08T06:16:21.521Z,7.73
2017-12-08T06:18:49.793Z,12.87
2017-12-08T06:21:18.174Z,9.90
2017-12-08T06:23:46.541Z,13.63
2017-12-08T06:26:14.823Z,12.50
2017-12-08T06:28:43.197Z,10.40
2017-12-08T06:31:11.672Z,10.53
2017-12-08T06:33:40.021Z,8.17
2017-12-08T06:36:09.057Z,11.07
2017-12-08T06:38:37.424Z,9.40
2017-12-08T06:41:05.709Z,9.03
2017-12-08T06:43:34.085Z,6.70
2017-12-08T06:46:02.391Z,12.13
2017-12-08T06:48:30.664Z,9.17
2017-12-08T06:50:58.915Z,8.70
2017-12-08T06:53:27.268Z,8.80
2017-12-08T06:55:55.525Z,8.90
2017-12-08T06:58:23.764Z,8.20
2017-12-08T07:00:52.058Z,9.27
2017-12-08T07:03:20.308Z,9.00
2017-12-08T07:05:48.518Z,12.87
2017-12-08T07:08:16.875Z,9.47
2017-12-08T07:10:45.235Z,8.43
2017-12-08T07:13:14.277Z,7.80
2017-12-08T07:15:42.632Z,6.53
2017-12-08T07:18:10.898Z,8.87
2017-12-08T07:20:39.126Z,7.27
2017-12-08T07:23:07.425Z,8.47
2017-12-08T07:28:32.541Z,10.50
2017-12-08T07:31:00.796Z,7.10
2017-12-08T07:33:29.071Z,5.80
2017-12-08T07:35:57.477Z,6.50
2017-12-08T07:38:25.701Z,6.03
2017-12-08T07:40:53.923Z,8.10
2017-12-08T07:43:22.300Z,9.50
2017-12-08T07:45:50.552Z,8.40
2017-12-08T07:48:19.578Z,7.13
2017-12-08T07:50:48.025Z,11.20
2017-12-08T07:53:17.219Z,6.30
2017-12-08T07:55:46.233Z,10.07
2017-12-08T07:58:14.583Z,7.57
2017-12-08T08:00:43.619Z,6.00
2017-12-08T08:03:11.849Z,7.73
2017-12-08T08:05:40.253Z,6.83
2017-12-08T08:08:08.495Z,7.80
2017-12-08T08:10:36.753Z,7.47
2017-12-08T08:13:05.012Z,6.13
2017-12-08T08:15:33.272Z,8.90
2017-12-08T08:18:01.527Z,17.53
2017-12-08T08:20:29.815Z,18.30
2017-12-08T08:22:58.135Z,64.07
2017-12-08T08:25:26.375Z,177.47
2017-12-08T08:27:54.675Z,160.57
2017-12-08T08:30:22.939Z,182.77
2017-12-08T08:32:51.170Z,11.67
2017-12-08T08:35:20.218Z,43.60
2017-12-08T08:37:48.665Z,190.03
2017-12-08T08:40:16.924Z,153.93
2017-12-08T08:42:45.202Z,146.73
2017-12-08T08:45:13.445Z,7.60
2017-12-08T08:47:42.472Z,25.43
2017-12-08T08:50:10.803Z,51.37
2017-12-08T08:52:39.169Z,27.17
2017-12-08T08:55:07.401Z,41.07
2017-12-08T08:57:35.685Z,12.90
2017-12-08T09:00:03.965Z,14.13
2017-12-08T09:02:32.249Z,19.97
2017-12-08T09:05:01.397Z,8.67
2017-12-08T09:07:29.675Z,32.90
2017-12-08T09:09:57.922Z,8.40
2017-12-08T09:12:26.214Z,22.17
2017-12-08T09:14:54.499Z,32.50
2017-12-08T09:17:22.770Z,20.83
2017-12-08T09:19:51.040Z,17.70
2017-12-08T09:22:19.272Z,11.90
2017-12-08T09:24:47.507Z,19.70
2017-12-08T09:27:15.882Z,14.50
2017-12-08T09:29:44.166Z,16.17
2017-12-08T09:32:13.215Z,16.20
2017-12-08T09:34:41.528Z,13.30
2017-12-08T09:37:09.834Z,24.40
2017-12-08T09:39:38.113Z,13.37
2017-12-08T09:42:06.382Z,13.47
2017-12-08T09:44:34.653Z,13.20
2017-12-08T09:47:02.935Z,16.57
2017-12-08T09:49:31.973Z,26.33
2017-12-08T09:52:00.270Z,26.83
2017-12-08T09:54:29.434Z,22.60
2017-12-08T09:56:57.832Z,13.97
2017-12-08T09:59:26.106Z,11.47
2017-12-08T10:01:54.370Z,8.00
2017-12-08T10:04:22.680Z,27.63
2017-12-08T10:06:50.931Z,17.93
2017-12-08T10:09:19.161Z,23.93
2017-12-08T10:11:47.449Z,16.53
2017-12-08T10:14:15.707Z,20.10
2017-12-08T10:16:43.955Z,19.20
2017-12-08T10:19:12.226Z,28.07
2017-12-08T10:21:40.463Z,15.67
2017-12-08T10:24:08.780Z,12.30
2017-12-08T10:26:37.046Z,8.70
2017-12-08T10:29:05.293Z,16.60
2017-12-08T10:31:33.589Z,23.07
2017-12-08T10:34:01.861Z,21.47
2017-12-08T10:36:30.093Z,17.37
2017-12-08T10:38:58.355Z,17.23
2017-12-08T10:41:27.430Z,10.50
2017-12-08T10:43:55.650Z,15.17
2017-12-08T10:46:23.931Z,15.53
2017-12-08T10:48:52.233Z,18.33
2017-12-08T10:51:20.464Z,18.30
2017-12-08T10:53:48.717Z,12.63
2017-12-08T10:56:17.773Z,16.50
2017-12-08T10:58:46.016Z,18.40
2017-12-08T11:01:14.298Z,18.33
2017-12-08T11:03:42.577Z,20.43
2017-12-08T11:06:10.852Z,15.63
2017-12-08T11:08:39.121Z,12.23
2017-12-08T11:11:07.375Z,14.50
2017-12-08T11:13:35.625Z,16.27
2017-12-08T11:16:03.871Z,14.30
2017-12-08T11:18:32.167Z,11.90
2017-12-08T11:21:00.400Z,16.03
2017-12-08T11:23:28.671Z,13.90
2017-12-08T11:25:56.950Z,12.43
2017-12-08T11:28:25.188Z,17.70
2017-12-08T11:30:54.221Z,16.40
2017-12-08T11:33:22.520Z,14.57
2017-12-08T11:35:52.119Z,15.43
2017-12-08T11:38:20.632Z,16.03
2017-12-08T11:40:48.948Z,16.57
2017-12-08T11:43:17.237Z,17.10
2017-12-08T11:45:45.502Z,15.00
2017-12-08T11:48:13.801Z,12.87
2017-12-08T11:50:42.123Z,17.90
2017-12-08T11:53:10.373Z,15.70
2017-12-08T11:55:38.659Z,19.43
2017-12-08T11:58:07.049Z,16.17
2017-12-08T12:00:35.370Z,17.43
2017-12-08T12:03:03.699Z,12.10
2017-12-08T12:05:31.919Z,15.47
2017-12-08T12:08:00.151Z,15.20
2017-12-08T12:10:28.470Z,18.57
2017-12-08T12:12:56.721Z,15.80
2017-12-08T12:15:25.746Z,16.63
2017-12-08T12:17:54.041Z,17.77
2017-12-08T12:20:22.300Z,20.20
2017-12-08T12:22:50.542Z,13.40
2017-12-08T12:25:18.827Z,12.67
2017-12-08T12:27:47.117Z,11.17
2017-12-08T12:30:15.351Z,13.93
2017-12-08T12:32:43.701Z,18.57
2017-12-08T12:35:11.980Z,16.00
2017-12-08T12:37:40.220Z,15.07
2017-12-08T12:40:08.582Z,15.90
2017-12-08T12:42:37.643Z,15.97
2017-12-08T12:45:05.940Z,12.83
2017-12-08T12:47:34.658Z,12.63
2017-12-08T12:50:03.024Z,18.87
2017-12-08T12:52:31.281Z,21.03
2017-12-08T12:55:00.343Z,19.57
2017-12-08T12:57:28.624Z,19.23
2017-12-08T12:59:56.925Z,14.27
2017-12-08T13:02:25.257Z,14.13
2017-12-08T13:04:53.510Z,17.93
2017-12-08T13:07:21.756Z,26.73
2017-12-08T13:09:50.129Z,16.57
2017-12-08T13:12:19.141Z,9.33
2017-12-08T13:14:47.431Z,11.73
2017-12-08T13:17:15.740Z,8.97
2017-12-08T13:19:44.019Z,11.93
2017-12-08T13:22:12.276Z,9.97
2017-12-08T13:24:40.639Z,13.07
2017-12-08T13:27:08.900Z,15.63
2017-12-08T13:29:37.187Z,15.70
2017-12-08T13:32:05.494Z,10.60
2017-12-08T13:34:33.791Z,27.73
2017-12-08T13:37:02.142Z,16.70
2017-12-08T13:39:30.490Z,15.30
2017-12-08T13:41:58.755Z,12.00
2017-12-08T13:44:27.006Z,16.10
2017-12-08T13:46:55.296Z,13.47
2017-12-08T13:49:24.305Z,9.70
2017-12-08T13:51:52.573Z,20.80
2017-12-08T13:54:38.669Z,17.80
2017-12-08T13:57:06.926Z,24.23
2017-12-08T13:59:35.228Z,12.50
2017-12-08T14:02:03.581Z,17.63
2017-12-08T14:04:32.656Z,13.43
2017-12-08T14:07:00.875Z,13.67
2017-12-08T14:09:29.172Z,14.57
2017-12-08T14:11:57.400Z,11.87
2017-12-08T14:14:26.409Z,14.90
2017-12-08T14:16:54.680Z,13.67
2017-12-08T14:19:22.958Z,18.13
2017-12-08T14:21:52.129Z,17.80
2017-12-08T14:24:20.408Z,13.47
2017-12-08T14:26:48.658Z,17.70
2017-12-08T14:29:16.964Z,23.97
2017-12-08T14:31:45.303Z,18.10
2017-12-08T14:34:13.616Z,19.60
2017-12-08T14:36:42.787Z,11.00
2017-12-08T14:39:11.080Z,17.43
2017-12-08T14:41:39.377Z,16.10
2017-12-08T14:44:07.818Z,11.63
2017-12-08T14:46:36.378Z,22.97
2017-12-08T14:49:04.680Z,20.13
2017-12-08T14:51:33.378Z,24.30
2017-12-08T14:54:01.671Z,21.70
2017-12-08T14:56:30.672Z,18.80
2017-12-08T14:58:59.140Z,18.53
2017-12-08T15:01:28.170Z,18.03
2017-12-08T15:03:56.437Z,16.30
2017-12-08T15:06:24.772Z,23.60
2017-12-08T15:08:53.059Z,27.17
2017-12-08T15:11:21.333Z,20.93
2017-12-08T15:13:49.703Z,15.40
2017-12-08T15:16:17.960Z,12.83
2017-12-08T15:18:46.444Z,12.23
2017-12-08T15:21:14.835Z,14.10
2017-12-08T15:23:43.112Z,13.50
2017-12-08T15:26:11.357Z,19.90
2017-12-08T15:28:39.684Z,17.93
2017-12-08T15:31:09.310Z,23.03
2017-12-08T15:33:37.599Z,15.17
2017-12-08T15:36:06.063Z,23.87
2017-12-08T15:38:35.070Z,20.93
2017-12-08T15:41:03.319Z,24.93
2017-12-08T15:43:32.451Z,33.47
2017-12-08T15:46:01.052Z,38.23
2017-12-08T15:48:29.290Z,29.20
2017-12-08T15:50:57.630Z,34.30
2017-12-08T15:53:25.866Z,40.50
2017-12-08T15:55:54.109Z,50.37
2017-12-08T15:58:23.984Z,38.47
2017-12-08T16:00:52.278Z,50.00
2017-12-08T16:03:21.278Z,21.90
2017-12-08T16:05:50.383Z,36.33
2017-12-08T16:08:19.418Z,37.00
2017-12-08T16:10:47.673Z,31.60
2017-12-08T16:13:16.039Z,20.50
2017-12-08T16:15:44.346Z,26.63
2017-12-08T16:18:12.663Z,39.80
2017-12-08T16:20:41.001Z,37.47
2017-12-08T16:23:09.296Z,32.10
2017-12-08T16:25:38.186Z,31.13
2017-12-08T16:28:06.649Z,32.03
2017-12-08T16:30:34.948Z,32.37
2017-12-08T16:33:03.290Z,41.50
2017-12-08T16:35:32.396Z,45.93
2017-12-08T16:38:00.705Z,39.80
2017-12-08T16:40:28.983Z,38.77
2017-12-08T16:42:57.349Z,33.43
2017-12-08T16:45:25.684Z,40.07
2017-12-08T16:47:54.300Z,47.23
2017-12-08T16:50:22.662Z,44.67
2017-12-08T16:52:50.947Z,43.97
2017-12-08T16:55:19.196Z,38.20
2017-12-08T16:57:47.506Z,36.27
2017-12-08T17:00:15.851Z,38.57
2017-12-08T17:02:44.896Z,41.10
2017-12-08T17:05:13.217Z,40.77
2017-12-08T17:07:41.484Z,34.63
2017-12-08T17:10:09.818Z,29.90
2017-12-08T17:12:38.101Z,24.97
2017-12-08T17:15:06.386Z,19.93
2017-12-08T17:17:35.475Z,27.93
2017-12-08T17:20:03.911Z,26.60
2017-12-08T17:22:32.930Z,19.97
2017-12-08T17:25:01.266Z,21.10
2017-12-08T17:27:29.621Z,21.40
2017-12-08T17:29:58.612Z,28.03
2017-12-08T17:32:27.816Z,32.23
2017-12-08T17:34:56.065Z,43.37
2017-12-08T17:37:24.329Z,47.53
2017-12-08T17:39:52.938Z,50.83
2017-12-08T17:42:21.217Z,49.83
2017-12-08T17:44:50.245Z,55.63
2017-12-08T17:47:18.737Z,48.03
2017-12-08T17:49:46.985Z,51.93
2017-12-08T17:52:15.249Z,37.20
2017-12-08T17:54:43.575Z,34.90
2017-12-08T17:57:11.820Z,40.13
2017-12-08T17:59:40.172Z,36.63
2017-12-08T18:02:09.197Z,31.33
2017-12-08T18:04:37.472Z,31.23
2017-12-08T18:07:05.961Z,28.60
2017-12-08T18:09:34.210Z,37.87
2017-12-08T18:12:04.102Z,27.07
2017-12-08T18:14:32.386Z,34.27
2017-12-08T18:17:00.680Z,31.67
2017-12-08T18:19:29.063Z,37.30
2017-12-08T18:21:57.358Z,25.43
2017-12-08T18:24:25.590Z,35.40
2017-12-08T18:26:54.591Z,33.00
2017-12-08T18:29:22.903Z,23.87
2017-12-08T18:31:51.140Z,32.43
2017-12-08T18:34:19.384Z,24.20
2017-12-08T18:36:47.785Z,27.07
2017-12-08T18:39:16.059Z,32.57
2017-12-08T18:41:45.139Z,21.70
2017-12-08T18:44:13.543Z,23.53
2017-12-08T18:46:42.941Z,28.93
2017-12-08T18:49:12.126Z,21.27
2017-12-08T18:51:40.376Z,25.30
2017-12-08T18:54:08.654Z,20.70
2017-12-08T18:56:37.088Z,18.90
2017-12-08T18:59:05.325Z,22.50
2017-12-08T19:01:33.600Z,29.27
2017-12-08T19:04:02.706Z,25.13
2017-12-08T19:06:31.808Z,22.07
2017-12-08T19:09:00.885Z,24.17
2017-12-08T19:11:29.947Z,18.90
2017-12-08T19:13:58.187Z,28.30
2017-12-08T19:16:26.437Z,34.50
2017-12-08T19:18:54.831Z,33.67
2017-12-08T19:21:23.867Z,32.63
2017-12-08T19:23:52.887Z,28.37
2017-12-08T19:26:21.289Z,22.33
2017-12-08T19:28:50.335Z,36.40
2017-12-08T19:31:18.601Z,43.00
2017-12-08T19:33:47.642Z,28.13
2017-12-08T19:36:15.955Z,33.10
2017-12-08T19:38:44.197Z,26.87
2017-12-08T19:41:13.305Z,24.00
2017-12-08T19:43:41.584Z,23.50
2017-12-08T19:46:12.408Z,19.10
2017-12-08T19:48:40.750Z,26.40
2017-12-08T19:51:09.680Z,23.80
2017-12-08T19:53:37.980Z,24.13
2017-12-08T19:56:06.275Z,23.30
2017-12-08T19:58:35.295Z,22.93
2017-12-08T20:01:03.543Z,20.57
2017-12-08T20:03:32.699Z,20.50
2017-12-08T20:06:01.765Z,17.43
2017-12-08T20:08:30.804Z,23.73
2017-12-08T20:10:59.109Z,20.90
2017-12-08T20:13:27.349Z,23.53
2017-12-08T20:15:55.612Z,23.50
2017-12-08T20:18:24.663Z,21.00
2017-12-08T20:20:52.896Z,23.57
2017-12-08T20:23:21.919Z,24.83
2017-12-08T20:25:50.226Z,20.83
2017-12-08T20:28:18.485Z,18.53
2017-12-08T20:30:46.800Z,36.83
2017-12-08T20:33:15.898Z,33.00
2017-12-08T20:35:44.919Z,21.33
2017-12-08T20:38:13.145Z,18.20
2017-12-08T20:40:41.455Z,27.77
2017-12-08T20:43:09.708Z,21.87
2017-12-08T20:45:38.798Z,23.43
2017-12-08T20:48:08.049Z,21.93
2017-12-08T20:50:37.390Z,23.87
2017-12-08T20:53:05.677Z,24.77
2017-12-08T20:55:34.069Z,34.33
2017-12-08T20:58:03.106Z,47.97
2017-12-08T21:00:31.377Z,44.30
2017-12-08T21:02:59.659Z,30.80
2017-12-08T21:05:27.938Z,24.63
2017-12-08T21:07:56.299Z,42.77
2017-12-08T21:10:24.696Z,100.90
2017-12-08T21:12:53.753Z,74.63
2017-12-08T21:15:22.003Z,61.27
2017-12-08T21:17:50.318Z,26.77
2017-12-08T21:20:18.621Z,29.70
2017-12-08T21:22:46.857Z,41.57
2017-12-08T21:25:15.168Z,45.97
2017-12-08T21:27:43.433Z,36.83
2017-12-08T21:30:11.713Z,39.23
2017-12-08T21:32:40.670Z,36.10
2017-12-08T21:35:08.923Z,56.63
2017-12-08T21:37:37.181Z,31.30
2017-12-08T21:40:05.580Z,58.30
2017-12-08T21:42:33.984Z,35.20
2017-12-08T21:45:02.983Z,44.57
2017-12-08T21:47:31.278Z,30.40
2017-12-08T21:49:59.614Z,33.37
2017-12-08T21:52:28.623Z,35.20
2017-12-08T21:54:57.687Z,46.60
2017-12-08T21:57:25.964Z,26.77
2017-12-08T21:59:54.190Z,33.33
2017-12-08T22:02:22.470Z,29.73
2017-12-08T22:04:50.722Z,37.63
2017-12-08T22:07:19.632Z,31.17
2017-12-08T22:09:48.023Z,36.97
2017-12-08T22:12:16.298Z,35.00
2017-12-08T22:14:44.657Z,35.57
2017-12-08T22:17:13.065Z,29.70
2017-12-08T22:19:41.418Z,34.10
2017-12-08T22:22:09.668Z,40.60
2017-12-08T22:24:38.046Z,46.30
2017-12-08T22:27:07.157Z,33.03
2017-12-08T22:29:35.468Z,31.70
2017-12-08T22:32:03.762Z,42.70
2017-12-08T22:34:32.099Z,43.90
2017-12-08T22:37:00.328Z,29.40
2017-12-08T22:39:28.597Z,48.53
2017-12-08T22:41:57.629Z,33.63
2017-12-08T22:44:25.912Z,40.30
2017-12-08T22:46:54.291Z,34.03
2017-12-08T22:49:22.653Z,39.10
2017-12-08T22:51:51.073Z,42.00
2017-12-08T22:54:19.400Z,38.60
2017-12-08T22:56:48.564Z,32.77
2017-12-08T22:59:16.791Z,30.20
2017-12-08T23:01:45.131Z,42.10
2017-12-08T23:04:13.406Z,32.73
2017-12-08T23:06:41.724Z,30.97
2017-12-08T23:09:10.128Z,44.43
2017-12-08T23:11:38.387Z,40.97
2017-12-08T23:14:07.450Z,30.37
2017-12-08T23:16:36.501Z,52.77
2017-12-08T23:19:04.739Z,44.03
2017-12-08T23:21:33.058Z,29.10
2017-12-08T23:24:02.256Z,42.93
2017-12-08T23:26:30.741Z,39.53
2017-12-08T23:28:59.110Z,28.50
2017-12-08T23:31:27.472Z,25.63
2017-12-08T23:33:55.819Z,37.13
2017-12-08T23:36:24.131Z,38.77
2017-12-08T23:38:52.575Z,41.87
2017-12-08T23:41:20.848Z,27.60
2017-12-08T23:43:49.130Z,34.60
2017-12-08T23:46:17.418Z,39.97
2017-12-08T23:48:45.659Z,41.57
2017-12-08T23:51:14.682Z,41.30
2017-12-08T23:53:43.293Z,33.90
2017-12-08T23:56:11.514Z,31.57
2017-12-08T23:58:40.577Z,33.53
